createdAt,value
2019-05-11T00:00:46.656Z,99878.09
2019-05-11T00:03:35.800Z,99877.00
2019-05-11T00:06:23.760Z,99867.56
2019-05-11T00:09:09.728Z,99862.68
2019-05-11T00:11:58.832Z,99865.34
2019-05-11T00:14:45.472Z,99859.38
2019-05-11T00:17:31.659Z,99864.95
2019-05-11T00:20:17.797Z,99850.14
2019-05-11T00:23:05.457Z,99838.80
2019-05-11T00:25:51.697Z,99845.17
2019-05-11T00:28:38.010Z,99835.04
2019-05-11T00:31:24.235Z,99837.93
2019-05-11T00:34:12.121Z,99837.42
2019-05-11T00:36:58.367Z,99841.50
2019-05-11T00:39:48.406Z,99844.56
2019-05-11T00:42:36.641Z,99844.95
2019-05-11T00:45:22.974Z,99854.33
2019-05-11T00:48:09.283Z,99852.45
2019-05-11T00:50:59.914Z,99849.27
2019-05-11T00:53:47.271Z,99846.61
2019-05-11T00:56:33.222Z,99847.20
2019-05-11T00:59:21.854Z,99842.30
2019-05-11T01:02:07.647Z,99840.64
2019-05-11T01:04:53.731Z,99841.84
2019-05-11T01:07:39.817Z,99843.20
2019-05-11T01:10:41.050Z,99845.56
2019-05-11T01:13:16.038Z,99843.58
2019-05-11T01:16:02.396Z,99845.56
2019-05-11T01:19:00.227Z,99845.52
2019-05-11T01:21:46.506Z,99847.02
2019-05-11T01:24:32.907Z,99845.82
2019-05-11T01:27:18.851Z,99835.40
2019-05-11T01:30:05.571Z,99832.03
2019-05-11T01:32:51.832Z,99830.90
2019-05-11T01:35:37.907Z,99836.30
2019-05-11T01:38:27.503Z,99833.87
2019-05-11T01:41:13.681Z,99831.95
2019-05-11T01:43:59.796Z,99825.52
2019-05-11T01:46:45.936Z,99840.61
2019-05-11T01:49:32.426Z,99835.03
2019-05-11T01:52:22.141Z,99838.96
2019-05-11T01:55:08.032Z,99833.09
2019-05-11T01:57:56.587Z,99829.78
2019-05-11T02:00:43.053Z,99825.44
2019-05-11T02:03:29.148Z,99824.57
2019-05-11T02:06:16.917Z,99832.92
2019-05-11T02:09:04.626Z,99827.91
2019-05-11T02:11:50.501Z,99829.59
2019-05-11T02:14:38.788Z,99829.77
2019-05-11T02:17:24.951Z,99835.28
2019-05-11T02:20:14.101Z,99831.84
2019-05-11T02:23:00.119Z,99834.31
2019-05-11T02:25:46.311Z,99836.34
2019-05-11T02:28:32.332Z,99835.02
2019-05-11T02:31:18.630Z,99820.73
2019-05-11T02:34:04.806Z,99822.52
2019-05-11T02:36:50.816Z,99819.25
2019-05-11T02:39:36.996Z,99819.41
2019-05-11T02:42:23.253Z,99822.25
2019-05-11T02:45:10.153Z,99817.13
2019-05-11T02:47:57.832Z,99809.70
2019-05-11T02:50:44.633Z,99816.14
2019-05-11T02:53:31.505Z,99811.84
2019-05-11T02:56:20.685Z,99809.09
2019-05-11T02:59:06.718Z,99806.96
2019-05-11T03:01:52.765Z,99808.27
2019-05-11T03:04:38.867Z,99820.41
2019-05-11T03:07:27.672Z,99808.27
2019-05-11T03:10:13.922Z,99795.80
2019-05-11T03:12:59.976Z,99793.14
2019-05-11T03:15:46.048Z,99793.73
2019-05-11T03:18:32.118Z,99793.66
2019-05-11T03:21:18.248Z,99792.20
2019-05-11T03:24:04.418Z,99784.78
2019-05-11T03:26:50.487Z,99786.31
2019-05-11T03:29:36.683Z,99786.46
2019-05-11T03:32:22.854Z,99789.31
2019-05-11T03:35:08.997Z,99792.53
2019-05-11T03:37:54.954Z,99783.84
2019-05-11T03:40:41.193Z,99786.66
2019-05-11T03:43:27.231Z,99782.13
2019-05-11T03:46:13.511Z,99789.84
2019-05-11T03:48:59.444Z,99800.11
2019-05-11T03:51:45.576Z,99796.18
2019-05-11T03:54:31.911Z,99799.73
2019-05-11T03:57:18.004Z,99806.78
2019-05-11T04:00:04.784Z,99816.08
2019-05-11T04:02:51.085Z,99815.36
2019-05-11T04:05:37.299Z,99807.03
2019-05-11T04:08:23.418Z,99806.25
2019-05-11T04:11:09.737Z,99823.30
2019-05-11T04:13:55.762Z,99822.30
2019-05-11T04:16:42.268Z,99837.42
2019-05-11T04:19:28.146Z,99835.93
2019-05-11T04:22:14.268Z,99833.91
2019-05-11T04:25:00.503Z,99830.69
2019-05-11T04:27:46.589Z,99832.10
2019-05-11T04:30:32.797Z,99829.64
2019-05-11T04:33:19.133Z,99828.59
2019-05-11T04:36:05.247Z,99828.66
2019-05-11T04:38:51.318Z,99833.75
2019-05-11T04:41:37.738Z,99839.97
2019-05-11T04:44:23.832Z,99842.11
2019-05-11T04:47:10.164Z,99842.67
2019-05-11T04:49:56.331Z,99845.78
2019-05-11T04:52:42.431Z,99847.54
2019-05-11T04:55:28.777Z,99841.09
2019-05-11T04:58:14.837Z,99843.68
2019-05-11T05:01:01.254Z,99836.30
2019-05-11T05:03:54.291Z,99840.01
2019-05-11T05:06:38.811Z,99833.37
2019-05-11T05:09:23.825Z,99830.44
2019-05-11T05:12:14.087Z,99836.17
2019-05-11T05:14:58.216Z,99833.89
2019-05-11T05:17:44.296Z,99847.38
2019-05-11T05:20:30.482Z,99843.47
2019-05-11T05:23:16.696Z,99842.59
2019-05-11T05:26:02.850Z,99846.25
2019-05-11T05:28:49.027Z,99845.92
2019-05-11T05:31:35.917Z,99844.98
2019-05-11T05:34:21.756Z,99846.61
2019-05-11T05:37:08.206Z,99849.67
2019-05-11T05:39:54.161Z,99844.38
2019-05-11T05:42:40.296Z,99846.59
2019-05-11T05:45:26.566Z,99844.81
2019-05-11T05:48:12.708Z,99851.27
2019-05-11T05:50:58.807Z,99854.97
2019-05-11T05:53:45.083Z,99849.66
2019-05-11T05:56:31.080Z,99848.30
2019-05-11T05:59:17.272Z,99851.14
2019-05-11T06:02:03.460Z,99853.22
2019-05-11T06:04:49.587Z,99845.77
2019-05-11T06:07:38.751Z,99853.74
2019-05-11T06:10:25.156Z,99854.29
2019-05-11T06:13:14.283Z,99857.31
2019-05-11T06:16:00.789Z,99852.30
2019-05-11T06:18:47.037Z,99858.88
2019-05-11T06:21:36.888Z,99858.58
2019-05-11T06:24:23.176Z,99861.63
2019-05-11T06:27:12.540Z,99860.30
2019-05-11T06:29:58.732Z,99862.73
2019-05-11T06:32:44.790Z,99865.70
2019-05-11T06:35:30.943Z,99876.05
2019-05-11T06:38:17.002Z,99873.17
2019-05-11T06:41:09.106Z,99874.39
2019-05-11T06:44:01.310Z,99866.60
2019-05-11T06:46:39.702Z,99868.19
2019-05-11T06:49:25.742Z,99869.59
2019-05-11T06:52:12.023Z,99868.95
2019-05-11T06:54:58.166Z,99869.88
2019-05-11T06:57:44.179Z,99867.09
2019-05-11T07:00:30.350Z,99863.61
2019-05-11T07:03:16.609Z,99867.08
2019-05-11T07:06:02.678Z,99872.55
2019-05-11T07:08:50.144Z,99870.97
2019-05-11T07:11:36.556Z,99878.16
2019-05-11T07:14:22.616Z,99879.48
2019-05-11T07:17:11.762Z,99884.45
2019-05-11T07:19:58.132Z,99888.59
2019-05-11T07:22:45.872Z,99890.69
2019-05-11T07:25:32.101Z,99891.36
2019-05-11T07:28:18.347Z,99884.42
2019-05-11T07:31:06.518Z,99890.12
2019-05-11T07:33:52.601Z,99896.42
2019-05-11T07:36:38.961Z,99889.84
2019-05-11T07:39:27.928Z,99892.48
2019-05-11T07:42:14.196Z,99896.23
2019-05-11T07:45:00.311Z,99891.12
2019-05-11T07:47:48.548Z,99900.30
2019-05-11T07:50:34.577Z,99898.51
2019-05-11T07:53:20.851Z,99901.62
2019-05-11T07:56:08.304Z,99899.74
2019-05-11T07:58:54.501Z,99901.10
2019-05-11T08:01:40.632Z,99900.86
2019-05-11T08:04:28.814Z,99898.81
2019-05-11T08:07:14.966Z,99902.70
2019-05-11T08:10:01.207Z,99904.25
2019-05-11T08:12:48.055Z,99904.43
2019-05-11T08:15:34.414Z,99909.36
2019-05-11T08:18:20.687Z,99906.18
2019-05-11T08:21:08.861Z,99911.09
2019-05-11T08:23:54.861Z,99909.91
2019-05-11T08:26:41.135Z,99913.66
2019-05-11T08:29:27.991Z,99912.56
2019-05-11T08:32:14.315Z,99914.64
2019-05-11T08:35:00.500Z,99918.45
2019-05-11T08:37:47.879Z,99924.12
2019-05-11T08:40:34.137Z,99917.94
2019-05-11T08:43:20.418Z,99921.97
2019-05-11T08:46:07.985Z,99921.89
2019-05-11T08:48:54.071Z,99932.07
2019-05-11T08:51:40.184Z,99926.89
2019-05-11T08:54:28.676Z,99936.29
2019-05-11T08:57:14.365Z,99936.98
2019-05-11T09:00:00.699Z,99933.05
2019-05-11T09:02:50.412Z,99940.38
2019-05-11T09:05:34.873Z,99940.11
2019-05-11T09:08:21.094Z,99946.25
2019-05-11T09:11:08.394Z,99952.03
2019-05-11T09:13:54.882Z,99957.56
2019-05-11T09:16:41.061Z,99953.45
2019-05-11T09:19:28.525Z,99961.65
2019-05-11T09:22:14.896Z,99959.91
2019-05-11T09:25:01.211Z,99956.43
2019-05-11T09:27:48.224Z,99960.67
2019-05-11T09:30:34.536Z,99966.42
2019-05-11T09:33:20.933Z,99966.02
2019-05-11T09:36:08.599Z,99972.08
2019-05-11T09:38:54.968Z,99975.96
2019-05-11T09:41:41.161Z,99982.08
2019-05-11T09:44:28.826Z,99987.19
2019-05-11T09:47:14.936Z,99984.36
2019-05-11T09:50:01.677Z,99989.41
2019-05-11T09:52:49.037Z,99989.96
2019-05-11T09:55:35.437Z,99996.00
2019-05-11T09:58:21.580Z,99999.79
2019-05-11T10:01:08.864Z,99997.38
2019-05-11T10:03:55.262Z,100003.19
2019-05-11T10:06:41.276Z,100005.00
2019-05-11T10:09:28.170Z,100012.00
2019-05-11T10:12:14.557Z,100003.59
2019-05-11T10:15:00.692Z,100006.59
2019-05-11T10:17:48.319Z,100010.31
2019-05-11T10:20:34.412Z,100014.05
2019-05-11T10:23:20.542Z,100022.66
2019-05-11T10:26:08.000Z,100023.19
2019-05-11T10:28:54.332Z,100028.20
2019-05-11T10:31:40.396Z,100032.28
2019-05-11T10:34:28.473Z,100037.14
2019-05-11T10:37:14.792Z,100040.38
2019-05-11T10:40:01.067Z,100051.77
2019-05-11T10:42:48.338Z,100041.67
2019-05-11T10:45:35.053Z,100053.83
2019-05-11T10:48:21.176Z,100044.27
2019-05-11T10:51:08.219Z,100064.13
2019-05-11T10:53:54.456Z,100056.55
2019-05-11T10:56:40.576Z,100065.27
2019-05-11T10:59:28.319Z,100072.62
2019-05-11T11:02:14.722Z,100072.88
2019-05-11T11:05:00.901Z,100087.72
2019-05-11T11:07:48.459Z,100086.39
2019-05-11T11:10:34.836Z,100089.58
2019-05-11T11:13:20.936Z,100101.13
2019-05-11T11:16:08.335Z,100099.05
2019-05-11T11:18:55.702Z,100101.73
2019-05-11T11:21:41.697Z,100105.02
2019-05-11T11:24:28.704Z,100109.34
2019-05-11T11:27:15.051Z,100107.88
2019-05-11T11:30:01.235Z,100112.75
2019-05-11T11:32:48.257Z,100117.41
2019-05-11T11:35:34.659Z,100117.12
2019-05-11T11:38:20.979Z,100114.95
2019-05-11T11:41:07.750Z,100122.95
2019-05-11T11:43:53.746Z,100123.66
2019-05-11T11:46:51.330Z,100124.42
2019-05-11T11:49:28.515Z,100142.53
2019-05-11T11:52:14.916Z,100131.06
2019-05-11T11:55:01.037Z,100136.20
2019-05-11T11:57:48.647Z,100155.41
2019-05-11T12:00:35.752Z,100153.70
2019-05-11T12:03:21.832Z,100157.55
2019-05-11T12:06:08.691Z,100161.30
2019-05-11T12:08:55.227Z,100165.77
2019-05-11T12:11:41.347Z,100173.51
2019-05-11T12:14:28.176Z,100177.88
2019-05-11T12:17:14.622Z,100181.16
2019-05-11T12:20:00.775Z,100176.22
2019-05-11T12:22:47.636Z,100182.66
2019-05-11T12:25:33.793Z,100186.39
2019-05-11T12:28:20.002Z,100186.22
2019-05-11T12:31:08.540Z,100188.83
2019-05-11T12:33:54.331Z,100172.95
2019-05-11T12:36:40.566Z,100188.22
2019-05-11T12:39:28.200Z,100181.02
2019-05-11T12:42:14.500Z,100199.14
2019-05-11T12:45:00.706Z,100206.95
2019-05-11T12:47:48.017Z,100203.96
2019-05-11T12:50:34.353Z,100215.28
2019-05-11T12:53:20.628Z,100210.72
2019-05-11T12:56:08.260Z,100215.27
2019-05-11T12:58:54.445Z,100225.19
2019-05-11T13:01:40.563Z,100228.73
2019-05-11T13:04:28.269Z,100219.11
2019-05-11T13:07:16.695Z,100232.29
2019-05-11T13:10:02.591Z,100240.63
2019-05-11T13:12:49.508Z,100246.84
2019-05-11T13:15:35.821Z,100240.30
2019-05-11T13:18:21.960Z,100256.95
2019-05-11T13:21:08.575Z,100258.79
2019-05-11T13:23:54.645Z,100264.15
2019-05-11T13:26:40.856Z,100262.28
2019-05-11T13:29:28.660Z,100272.48
2019-05-11T13:32:15.396Z,100273.59
2019-05-11T13:35:01.529Z,100282.42
2019-05-11T13:37:48.135Z,100285.33
2019-05-11T13:40:34.511Z,100278.85
2019-05-11T13:43:20.630Z,100285.78
2019-05-11T13:46:08.725Z,100292.81
2019-05-11T13:48:54.871Z,100292.80
2019-05-11T13:51:40.994Z,100291.97
2019-05-11T13:54:27.179Z,100300.17
2019-05-11T13:57:13.296Z,100304.48
2019-05-11T13:59:59.450Z,100310.20
2019-05-11T14:02:45.665Z,100304.59
2019-05-11T14:05:31.806Z,100310.59
2019-05-11T14:08:18.549Z,100310.17
2019-05-11T14:11:05.190Z,100302.47
2019-05-11T14:13:51.311Z,100307.94
2019-05-11T14:16:38.036Z,100310.02
2019-05-11T14:19:24.241Z,100311.69
2019-05-11T14:22:10.298Z,100309.02
2019-05-11T14:24:58.631Z,100324.03
2019-05-11T14:27:44.685Z,100321.75
2019-05-11T14:30:30.912Z,100327.81
2019-05-11T14:33:18.117Z,100327.64
2019-05-11T14:36:04.646Z,100343.83
2019-05-11T14:38:50.830Z,100336.34
2019-05-11T14:41:37.998Z,100336.16
2019-05-11T14:44:24.870Z,100339.47
2019-05-11T14:47:10.991Z,100342.61
2019-05-11T14:49:57.849Z,100348.70
2019-05-11T14:52:44.153Z,100360.16
2019-05-11T14:55:31.968Z,100354.95
2019-05-11T14:58:19.869Z,100362.72
2019-05-11T15:01:08.647Z,100370.63
2019-05-11T15:03:54.361Z,100371.75
2019-05-11T15:06:40.535Z,100385.13
2019-05-11T15:09:28.565Z,100385.16
2019-05-11T15:12:15.031Z,100393.08
2019-05-11T15:15:01.165Z,100395.87
2019-05-11T15:17:49.162Z,100403.95
2019-05-11T15:20:35.691Z,100410.09
2019-05-11T15:23:21.920Z,100403.49
2019-05-11T15:26:10.111Z,100413.77
2019-05-11T15:28:58.384Z,100410.70
2019-05-11T15:31:44.340Z,100413.23
2019-05-11T15:34:30.538Z,100409.02
2019-05-11T15:37:17.822Z,100414.70
2019-05-11T15:40:18.785Z,100425.02
2019-05-11T15:43:05.292Z,100407.33
2019-05-11T15:45:51.341Z,100414.04
2019-05-11T15:48:53.375Z,100415.48
2019-05-11T15:51:25.715Z,100419.44
2019-05-11T15:54:11.937Z,100414.55
2019-05-11T15:56:59.987Z,100419.61
2019-05-11T15:59:48.159Z,100431.26
2019-05-11T16:02:34.383Z,100434.36
2019-05-11T16:05:20.429Z,100436.33
2019-05-11T16:08:08.376Z,100446.89
2019-05-11T16:10:54.828Z,100448.42
2019-05-11T16:13:41.005Z,100451.84
2019-05-11T16:16:28.079Z,100466.57
2019-05-11T16:19:15.415Z,100464.27
2019-05-11T16:22:01.810Z,100472.04
2019-05-11T16:24:48.522Z,100458.00
2019-05-11T16:27:34.850Z,100445.20
2019-05-11T16:30:21.799Z,100458.95
2019-05-11T16:33:08.839Z,100464.03
2019-05-11T16:35:58.023Z,100458.54
2019-05-11T16:38:43.440Z,100464.80
2019-05-11T16:41:29.500Z,100465.16
2019-05-11T16:44:18.280Z,100458.98
2019-05-11T16:47:03.796Z,100457.97
2019-05-11T16:49:50.015Z,100466.84
2019-05-11T16:52:38.474Z,100464.25
2019-05-11T16:55:24.441Z,100468.66
2019-05-11T16:58:10.321Z,100474.44
2019-05-11T17:00:58.276Z,100469.72
2019-05-11T17:03:44.495Z,100488.80
2019-05-11T17:06:31.813Z,100481.24
2019-05-11T17:09:19.705Z,100492.23
2019-05-11T17:12:08.399Z,100499.09
2019-05-11T17:14:58.421Z,100496.23
2019-05-11T17:17:45.035Z,100518.52
2019-05-11T17:20:31.233Z,100520.04
2019-05-11T17:23:18.314Z,100525.41
2019-05-11T17:26:04.761Z,100523.43
2019-05-11T17:28:50.882Z,100523.98
2019-05-11T17:31:38.020Z,100524.64
2019-05-11T17:34:24.455Z,100540.09
2019-05-11T17:37:10.569Z,100548.34
2019-05-11T17:39:58.650Z,100564.33
2019-05-11T17:42:44.980Z,100569.00
2019-05-11T17:45:31.166Z,100582.20
2019-05-11T17:48:17.941Z,100582.20
2019-05-11T17:51:16.763Z,100581.28
2019-05-11T17:53:52.184Z,100596.52
2019-05-11T17:56:38.994Z,100583.21
2019-05-11T17:59:25.055Z,100600.69
2019-05-11T18:02:11.244Z,100621.11
2019-05-11T18:04:58.449Z,100625.68
2019-05-11T18:07:44.641Z,100638.06
2019-05-11T18:10:30.895Z,100652.92
2019-05-11T18:13:22.776Z,100663.11
2019-05-11T18:16:09.458Z,100669.22
2019-05-11T18:18:55.679Z,100680.11
2019-05-11T18:21:44.489Z,100697.03
2019-05-11T18:24:30.623Z,100705.23
2019-05-11T18:27:18.522Z,100711.39
2019-05-11T18:30:04.924Z,100716.60
2019-05-11T18:32:50.999Z,100723.31
2019-05-11T18:35:37.062Z,100724.07
2019-05-11T18:38:23.194Z,100737.12
2019-05-11T18:41:09.539Z,100738.48
2019-05-11T18:43:55.685Z,100752.73
2019-05-11T18:46:42.034Z,100764.95
2019-05-11T18:49:28.625Z,100773.58
2019-05-11T18:52:14.747Z,100777.19
2019-05-11T18:55:00.810Z,100784.59
2019-05-11T18:57:49.146Z,100787.82
2019-05-11T19:00:35.103Z,100796.05
2019-05-11T19:03:21.649Z,100794.86
2019-05-11T19:06:08.839Z,100805.73
2019-05-11T19:08:55.059Z,100801.03
2019-05-11T19:11:42.829Z,100810.72
2019-05-11T19:14:29.571Z,100820.48
2019-05-11T19:17:18.009Z,100830.52
2019-05-11T19:20:04.299Z,100831.31
2019-05-11T19:22:50.533Z,100837.03
2019-05-11T19:25:37.561Z,100847.72
2019-05-11T19:28:23.574Z,100857.31
2019-05-11T19:31:11.297Z,100852.77
2019-05-11T19:33:58.145Z,100856.55
2019-05-11T19:36:44.614Z,100859.59
2019-05-11T19:39:30.783Z,100865.86
2019-05-11T19:42:17.854Z,100867.53
2019-05-11T19:45:04.364Z,100869.33
2019-05-11T19:47:50.500Z,100890.70
2019-05-11T19:50:40.331Z,100894.37
2019-05-11T19:53:24.820Z,100912.31
2019-05-11T19:56:11.085Z,100908.73
2019-05-11T19:58:57.935Z,100912.88
2019-05-11T20:01:44.464Z,100920.88
2019-05-11T20:04:30.630Z,100928.70
2019-05-11T20:07:18.329Z,100937.83
2019-05-11T20:10:04.879Z,100945.26
2019-05-11T20:12:50.966Z,100940.43
2019-05-11T20:15:38.120Z,100946.72
2019-05-11T20:18:24.760Z,100950.34
2019-05-11T20:21:19.296Z,100954.34
2019-05-11T20:23:59.105Z,100964.23
2019-05-11T20:26:45.519Z,100966.78
2019-05-11T20:29:31.920Z,100965.59
2019-05-11T20:32:18.706Z,100972.28
2019-05-11T20:35:04.761Z,100972.37
2019-05-11T20:37:50.963Z,100989.15
2019-05-11T20:40:37.815Z,101002.02
2019-05-11T20:43:24.309Z,101005.00
2019-05-11T20:46:10.358Z,101016.36
2019-05-11T20:48:57.959Z,101013.82
2019-05-11T20:51:44.129Z,101018.34
2019-05-11T20:54:30.454Z,101023.67
2019-05-11T20:57:17.966Z,101029.74
2019-05-11T21:00:04.713Z,101037.40
2019-05-11T21:02:50.735Z,101034.41
2019-05-11T21:05:36.710Z,101035.16
2019-05-11T21:08:22.876Z,101039.19
2019-05-11T21:11:08.998Z,101041.89
2019-05-11T21:13:55.196Z,101043.69
2019-05-11T21:16:41.364Z,101056.94
2019-05-11T21:19:28.460Z,101059.41
2019-05-11T21:22:14.632Z,101068.09
2019-05-11T21:25:00.682Z,101070.33
2019-05-11T21:27:48.653Z,101083.12
2019-05-11T21:30:35.161Z,101087.89
2019-05-11T21:33:21.291Z,101087.78
2019-05-11T21:36:08.812Z,101089.75
2019-05-11T21:38:55.174Z,101100.19
2019-05-11T21:41:41.343Z,101102.52
2019-05-11T21:44:27.899Z,101097.83
2019-05-11T21:47:14.080Z,101102.95
2019-05-11T21:50:00.238Z,101106.59
2019-05-11T21:52:48.439Z,101112.08
2019-05-11T21:55:34.640Z,101113.67
2019-05-11T21:58:20.750Z,101115.40
2019-05-11T22:01:07.037Z,101113.98
2019-05-11T22:03:53.930Z,101122.30
2019-05-11T22:06:40.035Z,101118.98
2019-05-11T22:09:27.795Z,101125.75
2019-05-11T22:12:13.848Z,101128.02
2019-05-11T22:15:00.166Z,101128.73
2019-05-11T22:17:48.060Z,101133.55
2019-05-11T22:20:34.457Z,101137.47
2019-05-11T22:23:20.607Z,101141.39
2019-05-11T22:26:07.749Z,101144.95
2019-05-11T22:28:53.960Z,101150.12
2019-05-11T22:31:42.106Z,101154.20
2019-05-11T22:34:28.552Z,101161.59
2019-05-11T22:37:14.505Z,101161.88
2019-05-11T22:40:00.636Z,101177.24
2019-05-11T22:42:47.142Z,101180.49
2019-05-11T22:45:33.200Z,101188.47
2019-05-11T22:48:19.340Z,101190.74
2019-05-11T22:51:07.841Z,101193.26
2019-05-11T22:53:53.734Z,101192.23
2019-05-11T22:56:39.810Z,101197.67
2019-05-11T22:59:28.109Z,101197.47
2019-05-11T23:02:14.260Z,101197.76
2019-05-11T23:05:00.475Z,101198.70
2019-05-11T23:07:48.132Z,101197.92
2019-05-11T23:10:34.375Z,101206.39
2019-05-11T23:13:20.291Z,101209.63
2019-05-11T23:16:08.535Z,101212.16
2019-05-11T23:18:54.765Z,101222.23
2019-05-11T23:21:40.812Z,101224.91
2019-05-11T23:24:28.709Z,101240.90
2019-05-11T23:27:15.130Z,101237.34
2019-05-11T23:30:01.237Z,101243.87
2019-05-11T23:32:48.571Z,101249.51
2019-05-11T23:35:35.090Z,101244.28
2019-05-11T23:38:21.160Z,101242.11
2019-05-11T23:41:22.625Z,101242.20
2019-05-11T23:43:58.367Z,101238.06
2019-05-11T23:46:44.721Z,101249.88
2019-05-11T23:49:30.920Z,101244.81
2019-05-11T23:52:18.072Z,101257.50
2019-05-11T23:55:04.400Z,101254.64
2019-05-11T23:57:50.360Z,101257.78
